sensor_id;sensor_type;location;lat;lon;timestamp;pressure;altitude;pressure_sealevel;temperature;humidity
6565;BME280;3316;44.118;27.258;2023-05-03T00:00:30;101896.09;;;11.04;100.00
6565;BME280;3316;44.118;27.258;2023-05-03T00:02:56;101882.09;;;11.09;100.00
6565;BME280;3316;44.118;27.258;2023-05-03T00:05:21;101890.91;;;11.16;100.00
6565;BME280;3316;44.118;27.258;2023-05-03T00:07:47;101886.47;;;11.09;100.00
6565;BME280;3316;44.118;27.258;2023-05-03T00:10:13;101894.34;;;11.07;100.00
6565;BME280;3316;44.118;27.258;2023-05-03T00:12:42;101892.69;;;11.17;100.00
6565;BME280;3316;44.118;27.258;2023-05-03T00:15:08;101876.88;;;11.17;100.00
6565;BME280;3316;44.118;27.258;2023-05-03T00:17:35;101870.69;;;11.15;100.00
6565;BME280;3316;44.118;27.258;2023-05-03T00:20:01;101868.91;;;11.08;100.00
6565;BME280;3316;44.118;27.258;2023-05-03T00:22:27;101839.69;;;10.76;100.00
6565;BME280;3316;44.118;27.258;2023-05-03T00:24:52;101861.72;;;10.89;100.00
6565;BME280;3316;44.118;27.258;2023-05-03T00:27:18;101836.16;;;10.74;100.00
6565;BME280;3316;44.118;27.258;2023-05-03T00:29:44;101848.47;;;10.78;100.00
6565;BME280;3316;44.118;27.258;2023-05-03T00:32:10;101846.69;;;10.75;100.00
6565;BME280;3316;44.118;27.258;2023-05-03T00:34:39;101846.69;;;10.74;100.00
6565;BME280;3316;44.118;27.258;2023-05-03T00:37:04;101847.59;;;10.79;100.00
6565;BME280;3316;44.118;27.258;2023-05-03T00:39:30;101861.66;;;10.81;100.00
6565;BME280;3316;44.118;27.258;2023-05-03T00:41:59;101866.03;;;10.76;100.00
6565;BME280;3316;44.118;27.258;2023-05-03T00:44:26;101869.50;;;10.72;100.00
6565;BME280;3316;44.118;27.258;2023-05-03T00:46:52;101868.59;;;10.70;100.00
6565;BME280;3316;44.118;27.258;2023-05-03T00:49:18;101868.53;;;10.65;100.00
6565;BME280;3316;44.118;27.258;2023-05-03T00:51:44;101869.50;;;10.70;100.00
6565;BME280;3316;44.118;27.258;2023-05-03T00:54:10;101864.19;;;10.69;100.00
6565;BME280;3316;44.118;27.258;2023-05-03T00:56:36;101843.00;;;10.52;100.00
6565;BME280;3316;44.118;27.258;2023-05-03T00:59:03;101852.72;;;10.61;100.00
6565;BME280;3316;44.118;27.258;2023-05-03T01:01:30;101861.59;;;10.72;100.00
6565;BME280;3316;44.118;27.258;2023-05-03T01:03:59;101860.66;;;10.67;100.00
6565;BME280;3316;44.118;27.258;2023-05-03T01:09:14;101866.66;;;10.51;100.00
6565;BME280;3316;44.118;27.258;2023-05-03T01:17:27;101833.44;;;10.65;100.00
6565;BME280;3316;44.118;27.258;2023-05-03T01:19:56;101844.06;;;10.72;100.00
6565;BME280;3316;44.118;27.258;2023-05-03T01:22:31;101847.66;;;10.84;100.00
6565;BME280;3316;44.118;27.258;2023-05-03T01:25:08;101845.84;;;10.77;100.00
6565;BME280;3316;44.118;27.258;2023-05-03T01:27:34;101839.56;;;10.62;100.00
6565;BME280;3316;44.118;27.258;2023-05-03T01:30:04;101802.50;;;10.37;100.00
6565;BME280;3316;44.118;27.258;2023-05-03T01:32:52;101815.72;;;10.41;100.00
6565;BME280;3316;44.118;27.258;2023-05-03T01:37:56;101826.94;;;10.24;100.00
6565;BME280;3316;44.118;27.258;2023-05-03T01:40:22;101823.34;;;10.17;100.00
6565;BME280;3316;44.118;27.258;2023-05-03T01:42:50;101832.19;;;10.24;100.00
6565;BME280;3316;44.118;27.258;2023-05-03T01:45:16;101831.31;;;10.22;100.00
6565;BME280;3316;44.118;27.258;2023-05-03T01:47:42;101839.13;;;10.16;100.00
6565;BME280;3316;44.118;27.258;2023-05-03T01:50:08;101849.47;;;10.05;100.00
6565;BME280;3316;44.118;27.258;2023-05-03T01:52:33;101838.88;;;9.98;100.00
6565;BME280;3316;44.118;27.258;2023-05-03T01:54:59;101830.09;;;9.96;100.00
6565;BME280;3316;44.118;27.258;2023-05-03T01:57:24;101844.16;;;10.01;100.00
6565;BME280;3316;44.118;27.258;2023-05-03T01:59:50;101845.06;;;10.01;100.00
6565;BME280;3316;44.118;27.258;2023-05-03T02:02:15;101830.13;;;9.99;100.00
6565;BME280;3316;44.118;27.258;2023-05-03T02:04:41;101830.06;;;9.93;100.00
6565;BME280;3316;44.118;27.258;2023-05-03T02:07:06;101830.94;;;9.93;100.00
6565;BME280;3316;44.118;27.258;2023-05-03T02:09:32;101833.63;;;9.96;100.00
6565;BME280;3316;44.118;27.258;2023-05-03T02:11:58;101836.19;;;9.93;100.00
6565;BME280;3316;44.118;27.258;2023-05-03T02:14:23;101799.28;;;9.84;100.00
6565;BME280;3316;44.118;27.258;2023-05-03T02:16:48;101833.63;;;9.98;100.00
6565;BME280;3316;44.118;27.258;2023-05-03T02:19:14;101821.31;;;9.92;100.00
6565;BME280;3316;44.118;27.258;2023-05-03T02:21:40;101836.25;;;9.99;100.00
6565;BME280;3316;44.118;27.258;2023-05-03T02:24:05;101822.13;;;9.89;100.00
6565;BME280;3316;44.118;27.258;2023-05-03T02:26:31;101828.38;;;9.99;100.00
6565;BME280;3316;44.118;27.258;2023-05-03T02:28:56;101828.34;;;9.95;100.00
6565;BME280;3316;44.118;27.258;2023-05-03T02:31:23;101835.28;;;9.89;100.00
6565;BME280;3316;44.118;27.258;2023-05-03T02:33:48;101829.06;;;9.83;100.00
6565;BME280;3316;44.118;27.258;2023-05-03T02:36:13;101847.50;;;9.84;100.00
6565;BME280;3316;44.118;27.258;2023-05-03T02:38:39;101838.66;;;9.79;100.00
6565;BME280;3316;44.118;27.258;2023-05-03T02:41:04;101852.66;;;9.77;100.00
6565;BME280;3316;44.118;27.258;2023-05-03T02:43:30;101827.97;;;9.64;100.00
6565;BME280;3316;44.118;27.258;2023-05-03T02:45:55;101842.16;;;9.78;100.00
6565;BME280;3316;44.118;27.258;2023-05-03T02:48:21;101856.16;;;9.77;100.00
6565;BME280;3316;44.118;27.258;2023-05-03T02:50:47;101860.66;;;9.84;100.00
6565;BME280;3316;44.118;27.258;2023-05-03T02:53:12;101835.19;;;9.82;100.00
6565;BME280;3316;44.118;27.258;2023-05-03T02:55:38;101855.56;;;9.98;100.00
6565;BME280;3316;44.118;27.258;2023-05-03T02:58:03;101864.94;;;9.79;100.00
6565;BME280;3316;44.118;27.258;2023-05-03T03:00:29;101872.06;;;9.88;100.00
6565;BME280;3316;44.118;27.258;2023-05-03T03:02:54;101872.97;;;9.88;100.00
6565;BME280;3316;44.118;27.258;2023-05-03T03:05:20;101872.09;;;9.89;100.00
6565;BME280;3316;44.118;27.258;2023-05-03T03:07:45;101875.66;;;9.95;100.00
6565;BME280;3316;44.118;27.258;2023-05-03T03:10:11;101854.56;;;9.88;100.00
6565;BME280;3316;44.118;27.258;2023-05-03T03:12:37;101883.59;;;9.99;100.00
6565;BME280;3316;44.118;27.258;2023-05-03T03:15:03;101879.31;;;10.06;100.00
6565;BME280;3316;44.118;27.258;2023-05-03T03:17:29;101879.31;;;10.09;100.00
6565;BME280;3316;44.118;27.258;2023-05-03T03:19:55;101885.72;;;10.26;100.00
6565;BME280;3316;44.118;27.258;2023-05-03T03:22:22;101892.31;;;10.73;100.00
6565;BME280;3316;44.118;27.258;2023-05-03T03:24:48;101876.88;;;11.15;100.00
6565;BME280;3316;44.118;27.258;2023-05-03T03:27:13;101867.34;;;11.40;100.00
6565;BME280;3316;44.118;27.258;2023-05-03T03:29:39;101869.41;;;11.94;100.00
6565;BME280;3316;44.118;27.258;2023-05-03T03:32:04;101900.38;;;12.57;100.00
6565;BME280;3316;44.118;27.258;2023-05-03T03:34:30;101895.13;;;12.82;100.00
6565;BME280;3316;44.118;27.258;2023-05-03T03:36:56;101888.06;;;13.02;100.00
6565;BME280;3316;44.118;27.258;2023-05-03T03:39:21;101902.13;;;13.56;100.00
6565;BME280;3316;44.118;27.258;2023-05-03T03:41:47;101887.94;;;13.84;100.00
6565;BME280;3316;44.118;27.258;2023-05-03T03:44:12;101894.81;;;14.33;100.00
6565;BME280;3316;44.118;27.258;2023-05-03T03:46:38;101898.88;;;14.81;100.00
6565;BME280;3316;44.118;27.258;2023-05-03T03:49:03;101894.56;;;14.65;100.00
6565;BME280;3316;44.118;27.258;2023-05-03T03:51:29;101903.72;;;14.05;100.00
6565;BME280;3316;44.118;27.258;2023-05-03T03:53:55;101896.75;;;13.80;100.00
6565;BME280;3316;44.118;27.258;2023-05-03T03:56:20;101906.44;;;13.84;100.00
6565;BME280;3316;44.118;27.258;2023-05-03T03:58:46;101884.28;;;14.13;100.00
6565;BME280;3316;44.118;27.258;2023-05-03T04:01:11;101907.00;;;14.55;100.00
6565;BME280;3316;44.118;27.258;2023-05-03T04:03:37;101894.56;;;14.65;100.00
6565;BME280;3316;44.118;27.258;2023-05-03T04:06:02;101889.22;;;14.78;100.00
6565;BME280;3316;44.118;27.258;2023-05-03T04:08:28;101917.44;;;14.79;100.00
6565;BME280;3316;44.118;27.258;2023-05-03T04:10:53;101927.28;;;14.62;100.00
6565;BME280;3316;44.118;27.258;2023-05-03T04:13:18;101880.47;;;14.64;100.00
6565;BME280;3316;44.118;27.258;2023-05-03T04:15:44;101926.81;;;15.19;100.00
6565;BME280;3316;44.118;27.258;2023-05-03T04:18:09;101926.72;;;15.32;100.00
6565;BME280;3316;44.118;27.258;2023-05-03T04:20:36;101923.56;;;14.84;100.00
6565;BME280;3316;44.118;27.258;2023-05-03T04:23:01;101916.69;;;14.62;100.00
6565;BME280;3316;44.118;27.258;2023-05-03T04:25:26;101910.69;;;14.24;100.00
6565;BME280;3316;44.118;27.258;2023-05-03T04:27:52;101924.81;;;14.23;100.00
6565;BME280;3316;44.118;27.258;2023-05-03T04:30:18;101921.31;;;14.15;100.00
6565;BME280;3316;44.118;27.258;2023-05-03T04:32:44;101917.00;;;13.87;100.00
6565;BME280;3316;44.118;27.258;2023-05-03T04:35:10;101901.19;;;13.73;100.00
6565;BME280;3316;44.118;27.258;2023-05-03T04:37:36;101918.88;;;13.44;100.00
6565;BME280;3316;44.118;27.258;2023-05-03T04:40:02;101916.25;;;13.47;100.00
6565;BME280;3316;44.118;27.258;2023-05-03T04:42:33;101921.53;;;13.44;100.00
6565;BME280;3316;44.118;27.258;2023-05-03T04:44:59;101931.28;;;13.30;100.00
6565;BME280;3316;44.118;27.258;2023-05-03T04:47:27;101922.38;;;13.66;100.00
6565;BME280;3316;44.118;27.258;2023-05-03T04:49:52;101923.28;;;13.60;100.00
6565;BME280;3316;44.118;27.258;2023-05-03T04:52:17;101931.91;;;14.16;100.00
6565;BME280;3316;44.118;27.258;2023-05-03T04:54:43;101913.31;;;14.39;100.00
6565;BME280;3316;44.118;27.258;2023-05-03T04:57:09;101929.09;;;14.54;100.00
6565;BME280;3316;44.118;27.258;2023-05-03T04:59:35;101921.94;;;14.68;100.00
6565;BME280;3316;44.118;27.258;2023-05-03T05:02:01;101926.44;;;14.51;100.00
6565;BME280;3316;44.118;27.258;2023-05-03T05:04:26;101915.06;;;14.40;100.00
6565;BME280;3316;44.118;27.258;2023-05-03T05:06:52;101938.03;;;14.34;100.00
6565;BME280;3316;44.118;27.258;2023-05-03T05:09:26;101950.94;;;14.91;100.00
6565;BME280;3316;44.118;27.258;2023-05-03T05:11:52;101940.50;;;14.68;100.00
6565;BME280;3316;44.118;27.258;2023-05-03T05:14:18;101951.81;;;14.88;100.00
6565;BME280;3316;44.118;27.258;2023-05-03T05:16:44;101945.75;;;14.71;100.00
6565;BME280;3316;44.118;27.258;2023-05-03T05:19:10;101957.78;;;15.17;100.00
6565;BME280;3316;44.118;27.258;2023-05-03T05:21:36;101952.41;;;15.27;100.00
6565;BME280;3316;44.118;27.258;2023-05-03T05:24:01;101959.41;;;15.34;100.00
6565;BME280;3316;44.118;27.258;2023-05-03T05:26:27;101959.50;;;16.14;100.00
6565;BME280;3316;44.118;27.258;2023-05-03T05:28:52;101960.31;;;16.19;100.00
6565;BME280;3316;44.118;27.258;2023-05-03T05:31:18;101962.28;;;16.72;100.00
6565;BME280;3316;44.118;27.258;2023-05-03T05:33:43;101964.22;;;16.61;100.00
6565;BME280;3316;44.118;27.258;2023-05-03T05:36:09;101957.31;;;15.73;100.00
6565;BME280;3316;44.118;27.258;2023-05-03T05:38:35;101966.56;;;15.27;100.00
6565;BME280;3316;44.118;27.258;2023-05-03T05:41:01;101974.75;;;15.97;100.00
6565;BME280;3316;44.118;27.258;2023-05-03T05:43:26;101976.19;;;16.24;100.00
6565;BME280;3316;44.118;27.258;2023-05-03T05:45:52;101978.03;;;16.87;100.00
6565;BME280;3316;44.118;27.258;2023-05-03T05:48:17;101949.72;;;16.81;100.00
6565;BME280;3316;44.118;27.258;2023-05-03T05:50:43;101973.16;;;16.55;100.00
6565;BME280;3316;44.118;27.258;2023-05-03T05:53:09;101954.53;;;15.84;100.00
6565;BME280;3316;44.118;27.258;2023-05-03T05:55:34;101961.75;;;15.71;100.00
6565;BME280;3316;44.118;27.258;2023-05-03T05:58:00;101972.59;;;15.50;100.00
6565;BME280;3316;44.118;27.258;2023-05-03T06:00:25;101955.22;;;16.01;100.00
6565;BME280;3316;44.118;27.258;2023-05-03T06:02:51;101972.44;;;16.41;100.00
6565;BME280;3316;44.118;27.258;2023-05-03T06:05:17;101973.44;;;15.52;100.00
6565;BME280;3316;44.118;27.258;2023-05-03T06:07:42;101963.78;;;15.41;100.00
6565;BME280;3316;44.118;27.258;2023-05-03T06:10:08;101958.47;;;15.44;100.00
6565;BME280;3316;44.118;27.258;2023-05-03T06:12:34;101953.63;;;15.86;100.00
6565;BME280;3316;44.118;27.258;2023-05-03T06:15:01;101942.56;;;15.39;100.00
6565;BME280;3316;44.118;27.258;2023-05-03T06:17:26;101969.03;;;15.50;100.00
6565;BME280;3316;44.118;27.258;2023-05-03T06:19:52;101948.13;;;15.10;100.00
6565;BME280;3316;44.118;27.258;2023-05-03T06:22:17;101961.41;;;15.09;100.00
6565;BME280;3316;44.118;27.258;2023-05-03T06:24:43;101973.72;;;15.14;100.00
6565;BME280;3316;44.118;27.258;2023-05-03T06:27:08;101962.16;;;15.25;100.00
6565;BME280;3316;44.118;27.258;2023-05-03T06:29:34;101972.63;;;15.44;100.00
6565;BME280;3316;44.118;27.258;2023-05-03T06:31:59;101969.69;;;15.76;100.00
6565;BME280;3316;44.118;27.258;2023-05-03T06:34:25;101969.59;;;15.82;100.00
6565;BME280;3316;44.118;27.258;2023-05-03T06:36:51;101960.75;;;15.80;100.00
6565;BME280;3316;44.118;27.258;2023-05-03T06:39:16;101954.81;;;15.58;100.00
6565;BME280;3316;44.118;27.258;2023-05-03T06:41:42;101959.13;;;15.67;100.00
6565;BME280;3316;44.118;27.258;2023-05-03T06:44:08;101960.81;;;15.75;100.00
6565;BME280;3316;44.118;27.258;2023-05-03T06:46:33;101960.63;;;15.92;100.00
6565;BME280;3316;44.118;27.258;2023-05-03T06:48:59;101958.78;;;16.00;100.00
6565;BME280;3316;44.118;27.258;2023-05-03T06:51:25;101961.47;;;15.97;100.00
6565;BME280;3316;44.118;27.258;2023-05-03T06:53:57;101967.41;;;16.17;100.00
6565;BME280;3316;44.118;27.258;2023-05-03T06:56:31;101965.75;;;16.78;100.00
6565;BME280;3316;44.118;27.258;2023-05-03T06:58:57;101967.91;;;17.09;100.00
6565;BME280;3316;44.118;27.258;2023-05-03T07:01:22;101973.75;;;17.30;100.00
6565;BME280;3316;44.118;27.258;2023-05-03T07:03:47;101976.75;;;17.64;100.00
6565;BME280;3316;44.118;27.258;2023-05-03T07:06:13;101980.50;;;17.54;100.00
6565;BME280;3316;44.118;27.258;2023-05-03T07:08:39;101985.78;;;17.57;100.00
6565;BME280;3316;44.118;27.258;2023-05-03T07:11:05;101981.34;;;17.56;100.00
6565;BME280;3316;44.118;27.258;2023-05-03T07:13:30;101981.03;;;17.74;100.00
6565;BME280;3316;44.118;27.258;2023-05-03T07:15:56;101966.78;;;18.21;100.00
6565;BME280;3316;44.118;27.258;2023-05-03T07:18:22;101977.06;;;18.37;100.00
6565;BME280;3316;44.118;27.258;2023-05-03T07:20:47;101983.06;;;18.50;100.00
6565;BME280;3316;44.118;27.258;2023-05-03T07:23:13;101974.56;;;18.31;100.00
6565;BME280;3316;44.118;27.258;2023-05-03T07:25:40;101974.44;;;17.93;100.00
6565;BME280;3316;44.118;27.258;2023-05-03T07:28:06;101973.41;;;18.02;100.00
6565;BME280;3316;44.118;27.258;2023-05-03T07:30:31;101926.31;;;17.58;100.00
6565;BME280;3316;44.118;27.258;2023-05-03T07:32:57;101965.19;;;17.66;100.00
6565;BME280;3316;44.118;27.258;2023-05-03T07:35:22;101970.59;;;17.62;100.00
6565;BME280;3316;44.118;27.258;2023-05-03T07:37:48;101958.69;;;17.31;100.00
6565;BME280;3316;44.118;27.258;2023-05-03T07:40:13;101942.22;;;17.61;100.00
6565;BME280;3316;44.118;27.258;2023-05-03T07:42:39;101959.00;;;18.10;97.94
6565;BME280;3316;44.118;27.258;2023-05-03T07:45:05;101942.31;;;18.01;96.65
6565;BME280;3316;44.118;27.258;2023-05-03T07:47:31;101952.97;;;18.02;95.91
6565;BME280;3316;44.118;27.258;2023-05-03T07:49:57;101946.16;;;18.30;93.21
6565;BME280;3316;44.118;27.258;2023-05-03T07:52:22;101934.78;;;18.22;94.81
6565;BME280;3316;44.118;27.258;2023-05-03T07:54:48;101949.38;;;18.84;92.73
6565;BME280;3316;44.118;27.258;2023-05-03T07:57:14;101951.16;;;18.85;89.67
6565;BME280;3316;44.118;27.258;2023-05-03T07:59:41;101948.03;;;19.05;87.08
6565;BME280;3316;44.118;27.258;2023-05-03T08:02:07;101963.84;;;19.12;85.72
6565;BME280;3316;44.118;27.258;2023-05-03T08:04:33;101962.09;;;19.48;83.82
6565;BME280;3316;44.118;27.258;2023-05-03T08:07:01;101932.81;;;19.77;79.04
6565;BME280;3316;44.118;27.258;2023-05-03T08:09:28;101967.44;;;20.12;75.86
6565;BME280;3316;44.118;27.258;2023-05-03T08:11:54;101965.09;;;20.00;74.59
6565;BME280;3316;44.118;27.258;2023-05-03T08:14:21;101984.94;;;20.24;71.26
6565;BME280;3316;44.118;27.258;2023-05-03T08:16:47;101979.81;;;20.15;71.64
6565;BME280;3316;44.118;27.258;2023-05-03T08:19:12;101979.44;;;20.59;68.26
6565;BME280;3316;44.118;27.258;2023-05-03T08:21:38;102003.59;;;20.25;66.00
6565;BME280;3316;44.118;27.258;2023-05-03T08:24:04;102001.75;;;20.27;66.11
6565;BME280;3316;44.118;27.258;2023-05-03T08:26:34;101979.63;;;19.90;65.11
6565;BME280;3316;44.118;27.258;2023-05-03T08:28:59;102008.78;;;19.98;65.98
6565;BME280;3316;44.118;27.258;2023-05-03T08:31:27;102015.50;;;19.80;62.59
6565;BME280;3316;44.118;27.258;2023-05-03T08:33:53;101998.16;;;19.96;62.21
6565;BME280;3316;44.118;27.258;2023-05-03T08:36:18;102008.75;;;19.67;62.09
6565;BME280;3316;44.118;27.258;2023-05-03T08:38:44;102009.44;;;19.40;60.48
6565;BME280;3316;44.118;27.258;2023-05-03T08:41:30;101989.25;;;19.64;59.85
6565;BME280;3316;44.118;27.258;2023-05-03T08:43:57;101999.63;;;19.74;61.13
6565;BME280;3316;44.118;27.258;2023-05-03T08:46:23;101996.81;;;20.12;60.60
6565;BME280;3316;44.118;27.258;2023-05-03T08:48:52;101987.66;;;20.22;59.86
6565;BME280;3316;44.118;27.258;2023-05-03T08:51:18;101987.88;;;20.46;56.31
6565;BME280;3316;44.118;27.258;2023-05-03T08:53:45;101999.66;;;20.68;55.05
6565;BME280;3316;44.118;27.258;2023-05-03T08:56:13;102001.69;;;20.89;55.36
6565;BME280;3316;44.118;27.258;2023-05-03T08:58:40;102002.13;;;20.75;55.27
6565;BME280;3316;44.118;27.258;2023-05-03T09:01:08;101999.59;;;20.98;54.88
6565;BME280;3316;44.118;27.258;2023-05-03T09:03:34;101988.59;;;21.35;54.02
6565;BME280;3316;44.118;27.258;2023-05-03T09:06:00;101980.84;;;21.27;53.97
6565;BME280;3316;44.118;27.258;2023-05-03T09:08:30;101989.84;;;21.25;52.52
6565;BME280;3316;44.118;27.258;2023-05-03T09:10:56;101971.09;;;21.51;51.80
6565;BME280;3316;44.118;27.258;2023-05-03T09:13:31;101979.53;;;21.39;51.26
6565;BME280;3316;44.118;27.258;2023-05-03T09:15:57;101987.22;;;21.23;50.98
6565;BME280;3316;44.118;27.258;2023-05-03T09:18:22;101984.94;;;20.82;52.62
6565;BME280;3316;44.118;27.258;2023-05-03T09:20:50;101985.44;;;20.66;53.46
6565;BME280;3316;44.118;27.258;2023-05-03T09:23:27;101974.97;;;20.60;54.52
6565;BME280;3316;44.118;27.258;2023-05-03T09:25:54;101985.56;;;21.19;53.62
6565;BME280;3316;44.118;27.258;2023-05-03T09:28:20;101979.78;;;21.58;54.25
6565;BME280;3316;44.118;27.258;2023-05-03T09:30:46;101972.44;;;21.38;50.24
6565;BME280;3316;44.118;27.258;2023-05-03T09:33:12;101969.19;;;20.73;51.35
6565;BME280;3316;44.118;27.258;2023-05-03T09:35:57;101946.53;;;20.85;51.28
6565;BME280;3316;44.118;27.258;2023-05-03T09:38:30;101970.63;;;21.39;50.00
6565;BME280;3316;44.118;27.258;2023-05-03T09:40:56;101984.78;;;21.16;49.29
6565;BME280;3316;44.118;27.258;2023-05-03T09:43:21;101963.22;;;21.47;49.72
6565;BME280;3316;44.118;27.258;2023-05-03T09:45:47;101964.47;;;21.87;48.16
6565;BME280;3316;44.118;27.258;2023-05-03T09:48:13;101973.22;;;22.17;46.64
6565;BME280;3316;44.118;27.258;2023-05-03T09:50:39;101962.66;;;22.60;43.91
6565;BME280;3316;44.118;27.258;2023-05-03T09:53:06;101956.59;;;22.77;41.96
6565;BME280;3316;44.118;27.258;2023-05-03T09:55:36;101965.78;;;22.71;40.05
6565;BME280;3316;44.118;27.258;2023-05-03T09:58:02;101959.19;;;22.57;39.18
6565;BME280;3316;44.118;27.258;2023-05-03T10:00:37;101957.28;;;22.12;38.80
6565;BME280;3316;44.118;27.258;2023-05-03T10:03:08;101951.00;;;22.13;38.54
6565;BME280;3316;44.118;27.258;2023-05-03T10:05:46;101945.47;;;21.69;37.87
6565;BME280;3316;44.118;27.258;2023-05-03T10:10:45;101940.09;;;21.44;35.89
6565;BME280;3316;44.118;27.258;2023-05-03T10:13:16;101908.00;;;21.18;36.43
6565;BME280;3316;44.118;27.258;2023-05-03T10:15:43;101940.13;;;21.16;36.03
6565;BME280;3316;44.118;27.258;2023-05-03T10:18:12;101934.16;;;21.08;36.78
6565;BME280;3316;44.118;27.258;2023-05-03T10:20:44;101949.56;;;21.28;37.05
6565;BME280;3316;44.118;27.258;2023-05-03T10:23:12;101935.25;;;21.29;37.25
6565;BME280;3316;44.118;27.258;2023-05-03T10:25:39;101931.69;;;21.28;35.99
6565;BME280;3316;44.118;27.258;2023-05-03T10:28:24;101935.38;;;22.01;36.71
6565;BME280;3316;44.118;27.258;2023-05-03T10:30:50;101935.13;;;21.84;36.46
6565;BME280;3316;44.118;27.258;2023-05-03T10:35:42;101926.28;;;21.81;37.18
6565;BME280;3316;44.118;27.258;2023-05-03T10:38:19;101923.66;;;21.79;37.39
6565;BME280;3316;44.118;27.258;2023-05-03T10:40:44;101929.03;;;22.04;36.59
6565;BME280;3316;44.118;27.258;2023-05-03T10:45:58;101920.53;;;21.67;34.08
6565;BME280;3316;44.118;27.258;2023-05-03T10:48:24;101918.16;;;21.33;34.04
6565;BME280;3316;44.118;27.258;2023-05-03T10:50:50;101918.53;;;21.98;33.15
6565;BME280;3316;44.118;27.258;2023-05-03T10:53:43;101910.28;;;22.04;35.01
6565;BME280;3316;44.118;27.258;2023-05-03T10:56:10;101913.50;;;21.89;34.64
6565;BME280;3316;44.118;27.258;2023-05-03T11:01:03;101901.22;;;22.30;35.35
6565;BME280;3316;44.118;27.258;2023-05-03T11:06:29;101896.38;;;21.93;36.19
6565;BME280;3316;44.118;27.258;2023-05-03T11:08:55;101883.09;;;22.36;35.91
6565;BME280;3316;44.118;27.258;2023-05-03T11:11:21;101888.97;;;22.46;34.65
6565;BME280;3316;44.118;27.258;2023-05-03T11:13:46;101866.34;;;22.53;35.44
6565;BME280;3316;44.118;27.258;2023-05-03T11:16:12;101877.88;;;22.98;35.62
6565;BME280;3316;44.118;27.258;2023-05-03T11:18:37;101887.72;;;22.54;35.04
6565;BME280;3316;44.118;27.258;2023-05-03T11:21:03;101882.81;;;21.97;32.82
6565;BME280;3316;44.118;27.258;2023-05-03T11:23:29;101885.13;;;22.30;31.62
6565;BME280;3316;44.118;27.258;2023-05-03T11:25:55;101891.16;;;22.13;31.60
6565;BME280;3316;44.118;27.258;2023-05-03T11:28:22;101884.16;;;21.86;32.28
6565;BME280;3316;44.118;27.258;2023-05-03T11:30:48;101879.19;;;21.74;32.92
6565;BME280;3316;44.118;27.258;2023-05-03T11:33:15;101842.63;;;21.48;33.05
6565;BME280;3316;44.118;27.258;2023-05-03T11:35:40;101870.28;;;21.98;33.10
6565;BME280;3316;44.118;27.258;2023-05-03T11:38:07;101867.38;;;22.04;33.27
6565;BME280;3316;44.118;27.258;2023-05-03T11:40:33;101871.50;;;21.89;32.09
6565;BME280;3316;44.118;27.258;2023-05-03T11:42:59;101881.88;;;21.98;32.03
6565;BME280;3316;44.118;27.258;2023-05-03T11:45:26;101876.78;;;22.14;32.40
6565;BME280;3316;44.118;27.258;2023-05-03T11:50:42;101858.22;;;21.86;31.92
6565;BME280;3316;44.118;27.258;2023-05-03T11:53:08;101859.97;;;22.10;31.60
6565;BME280;3316;44.118;27.258;2023-05-03T11:55:38;101869.88;;;21.61;32.52
6565;BME280;3316;44.118;27.258;2023-05-03T11:58:03;101862.44;;;21.44;33.14
6565;BME280;3316;44.118;27.258;2023-05-03T12:00:29;101871.78;;;21.82;33.01
6565;BME280;3316;44.118;27.258;2023-05-03T12:02:57;101850.59;;;21.74;33.11
6565;BME280;3316;44.118;27.258;2023-05-03T12:05:23;101841.91;;;21.68;32.85
6565;BME280;3316;44.118;27.258;2023-05-03T12:07:49;101838.97;;;21.51;32.87
6565;BME280;3316;44.118;27.258;2023-05-03T12:10:16;101838.25;;;21.70;33.29
6565;BME280;3316;44.118;27.258;2023-05-03T12:12:55;101818.56;;;21.71;33.15
6565;BME280;3316;44.118;27.258;2023-05-03T12:15:34;101825.75;;;21.71;33.19
6565;BME280;3316;44.118;27.258;2023-05-03T12:18:05;101830.28;;;21.69;33.52
6565;BME280;3316;44.118;27.258;2023-05-03T12:20:31;101818.88;;;21.87;33.94
6565;BME280;3316;44.118;27.258;2023-05-03T12:23:01;101834.50;;;21.51;33.60
6565;BME280;3316;44.118;27.258;2023-05-03T12:25:30;101816.22;;;21.62;34.34
6565;BME280;3316;44.118;27.258;2023-05-03T12:28:00;101813.41;;;21.65;34.38
6565;BME280;3316;44.118;27.258;2023-05-03T12:30:27;101814.66;;;21.80;34.56
6565;BME280;3316;44.118;27.258;2023-05-03T12:32:53;101806.69;;;21.78;34.61
6565;BME280;3316;44.118;27.258;2023-05-03T12:35:19;101798.88;;;21.72;34.95
6565;BME280;3316;44.118;27.258;2023-05-03T12:37:46;101769.34;;;21.74;34.57
6565;BME280;3316;44.118;27.258;2023-05-03T12:40:16;101744.59;;;21.90;34.35
6565;BME280;3316;44.118;27.258;2023-05-03T12:42:42;101785.22;;;22.46;34.38
6565;BME280;3316;44.118;27.258;2023-05-03T12:45:09;101788.13;;;22.63;33.92
6565;BME280;3316;44.118;27.258;2023-05-03T12:47:35;101776.94;;;22.52;34.21
6565;BME280;3316;44.118;27.258;2023-05-03T12:50:04;101770.94;;;22.46;34.81
6565;BME280;3316;44.118;27.258;2023-05-03T12:52:30;101772.81;;;22.44;34.42
6565;BME280;3316;44.118;27.258;2023-05-03T12:54:58;101778.22;;;21.99;33.71
6565;BME280;3316;44.118;27.258;2023-05-03T12:57:24;101775.44;;;22.02;34.44
6565;BME280;3316;44.118;27.258;2023-05-03T12:59:50;101775.78;;;21.93;34.76
6565;BME280;3316;44.118;27.258;2023-05-03T13:02:19;101758.50;;;21.77;35.10
6565;BME280;3316;44.118;27.258;2023-05-03T13:04:44;101782.34;;;22.07;34.89
6565;BME280;3316;44.118;27.258;2023-05-03T13:07:10;101773.03;;;21.94;34.87
6565;BME280;3316;44.118;27.258;2023-05-03T13:09:39;101778.53;;;21.91;35.69
6565;BME280;3316;44.118;27.258;2023-05-03T13:12:04;101775.81;;;21.68;35.61
6565;BME280;3316;44.118;27.258;2023-05-03T13:14:30;101769.19;;;21.78;35.18
6565;BME280;3316;44.118;27.258;2023-05-03T13:16:55;101774.53;;;21.78;35.10
6565;BME280;3316;44.118;27.258;2023-05-03T13:19:21;101768.47;;;21.96;35.27